Time;durP1;ratioP1;P1;durP2;ratioP2;P2;SDS_P1;SDS_P2;PMS_P1;PMS_P2;Temp;Humidity;BMP_temperature;BMP_pressure;BME280_temperature;BME280_humidity;BME280_pressure;Samples;Min_cycle;Max_cycle;Signal;HPM_P1;HPM_P2
2023/09/18 00:00:08;;;;;;;4.97;4.40;;;25.70;68.40;26.60;99876.00;;;;5027126;28;20203;-53
2023/09/18 00:02:34;;;;;;;4.80;3.90;;;25.70;68.60;26.60;99884.00;;;;5001196;28;20273;-54
2023/09/18 00:05:00;;;;;;;6.47;4.07;;;25.80;68.60;26.60;99883.00;;;;5010513;28;20187;-54
2023/09/18 00:07:26;;;;;;;6.47;4.68;;;25.70;68.40;26.60;99875.00;;;;5009933;28;20262;-53
2023/09/18 00:09:52;;;;;;;6.15;4.45;;;25.70;68.60;26.60;99875.00;;;;5011044;28;20199;-53
2023/09/18 00:12:18;;;;;;;6.15;4.40;;;25.70;68.50;26.60;99873.00;;;;5027086;28;20202;-52
2023/09/18 00:14:44;;;;;;;7.80;4.65;;;25.80;68.60;26.60;99860.00;;;;5013735;28;20220;-53
2023/09/18 00:17:09;;;;;;;5.57;4.32;;;25.70;68.50;26.60;99858.00;;;;5009862;28;20253;-53
2023/09/18 00:19:35;;;;;;;5.05;4.20;;;25.70;68.40;26.60;99851.00;;;;4974435;28;1034186;-53
2023/09/18 00:22:01;;;;;;;5.35;3.95;;;25.70;68.30;26.60;99847.00;;;;5010325;28;20421;-53
2023/09/18 00:24:27;;;;;;;4.40;4.00;;;25.70;68.20;26.60;99845.00;;;;5008816;28;20658;-53
2023/09/18 00:26:53;;;;;;;4.80;4.00;;;25.80;68.40;26.60;99831.00;;;;5009918;28;20659;-53
2023/09/18 00:29:19;;;;;;;4.93;3.75;;;25.80;68.30;26.60;99839.00;;;;5009780;28;20289;-53
2023/09/18 00:31:45;;;;;;;4.57;4.10;;;25.70;68.10;26.40;99827.00;;;;5009870;28;20191;-53
2023/09/18 00:34:11;;;;;;;4.40;4.00;;;25.80;68.10;26.60;99835.00;;;;5009908;28;20254;-53
2023/09/18 00:36:37;;;;;;;5.78;4.20;;;25.80;68.30;26.60;99835.00;;;;5010012;28;20617;-53
2023/09/18 00:39:03;;;;;;;4.05;3.65;;;25.70;68.00;26.60;99832.00;;;;5009878;28;20533;-53
2023/09/18 00:41:29;;;;;;;4.57;4.07;;;25.70;68.00;26.60;99823.00;;;;5009915;28;20222;-54
2023/09/18 00:43:55;;;;;;;5.05;4.25;;;25.70;68.10;26.60;99833.00;;;;5009592;28;20219;-54
2023/09/18 00:46:21;;;;;;;4.43;3.95;;;25.60;68.00;26.60;99830.00;;;;5009698;28;20199;-52
2023/09/18 00:48:47;;;;;;;4.70;3.85;;;25.70;68.40;26.60;99826.00;;;;5007800;28;20305;-54
2023/09/18 00:51:13;;;;;;;6.53;4.07;;;25.70;68.40;26.60;99823.00;;;;5008132;28;20207;-53
2023/09/18 00:53:39;;;;;;;4.75;4.07;;;25.70;68.20;26.60;99810.00;;;;5009889;28;20176;-53
2023/09/18 00:56:05;;;;;;;4.57;4.05;;;25.70;68.10;26.60;99795.00;;;;4975973;28;20732;-54
2023/09/18 00:58:30;;;;;;;4.43;3.70;;;25.70;68.20;26.60;99793.00;;;;5009413;28;20183;-54
2023/09/18 01:00:56;;;;;;;6.28;4.43;;;25.70;68.20;26.60;99795.00;;;;5008178;28;20199;-53
2023/09/18 01:03:22;;;;;;;4.93;4.43;;;25.70;68.00;26.60;99788.00;;;;5008262;28;20246;-53
2023/09/18 01:05:48;;;;;;;4.45;3.97;;;25.60;68.10;26.60;99799.00;;;;4991895;28;20533;-54
2023/09/18 01:08:13;;;;;;;4.40;4.00;;;25.50;68.40;26.50;99787.00;;;;5009084;28;20258;-53
2023/09/18 01:11:00;;;;;;;4.38;3.97;;;25.60;68.50;26.50;99790.00;;;;5008911;28;20211;-53
2023/09/18 01:13:54;;;;;;;4.78;4.20;;;25.60;68.40;26.30;99794.00;;;;5007510;28;20250;-53
2023/09/18 01:16:36;;;;;;;5.20;3.97;;;25.60;68.30;26.50;99801.00;;;;4992651;28;20179;-53
2023/09/18 01:19:03;;;;;;;5.32;4.20;;;25.60;68.20;26.50;99745.00;;;;5007329;28;20796;-52
2023/09/18 01:21:29;;;;;;;4.55;4.07;;;25.60;67.90;26.50;99797.00;;;;5009355;28;20253;-54
2023/09/18 01:23:54;;;;;;;4.68;4.10;;;25.60;68.00;26.50;99792.00;;;;5009012;28;20184;-53
2023/09/18 01:26:20;;;;;;;4.20;3.85;;;25.60;68.00;26.50;99795.00;;;;5007504;28;20590;-52
2023/09/18 01:28:46;;;;;;;7.97;3.92;;;25.60;68.20;26.50;99788.00;;;;5006548;28;20182;-52
2023/09/18 01:31:11;;;;;;;5.65;4.20;;;25.60;68.40;26.50;99787.00;;;;5007073;28;20195;-54
2023/09/18 01:33:37;;;;;;;5.57;4.07;;;25.60;68.60;26.50;99789.00;;;;5006813;28;20654;-54
2023/09/18 01:36:03;;;;;;;4.63;4.15;;;25.60;68.60;26.50;99775.00;;;;5005599;28;20231;-54
2023/09/18 01:38:29;;;;;;;5.18;3.72;;;25.60;68.40;26.50;99780.00;;;;4989358;28;20190;-58
2023/09/18 01:40:55;;;;;;;4.05;3.63;;;25.60;68.30;26.40;99781.00;;;;4973385;28;20219;-53
2023/09/18 01:43:21;;;;;;;5.15;3.90;;;25.60;68.10;26.50;99769.00;;;;5007447;28;20192;-53
2023/09/18 01:45:47;;;;;;;5.65;4.10;;;25.50;68.00;26.50;99770.00;;;;5007031;28;20184;-55
2023/09/18 01:48:13;;;;;;;4.55;3.90;;;25.60;67.90;26.50;99775.00;;;;4989260;28;20551;-53
2023/09/18 01:50:41;;;;;;;5.82;3.88;;;25.50;68.00;26.50;99765.00;;;;5005645;28;20224;-54
2023/09/18 01:53:07;;;;;;;4.20;3.80;;;25.50;67.90;26.40;99755.00;;;;5006851;28;20172;-54
2023/09/18 01:55:33;;;;;;;4.70;3.67;;;25.50;68.70;26.40;99750.00;;;;5007010;28;20172;-54
2023/09/18 01:57:59;;;;;;;5.82;4.00;;;25.50;67.90;26.40;99743.00;;;;5005437;28;20802;-53
2023/09/18 02:00:25;;;;;;;5.35;4.00;;;25.50;67.90;26.40;99746.00;;;;5005400;28;20592;-54
2023/09/18 02:02:50;;;;;;;5.35;4.05;;;25.50;67.40;26.40;99751.00;;;;5009417;28;20186;-53
2023/09/18 02:05:16;;;;;;;4.00;3.60;;;25.50;67.80;26.40;99735.00;;;;5024754;28;20275;-53
2023/09/18 02:07:42;;;;;;;5.68;3.60;;;25.50;67.90;26.40;99736.00;;;;5009607;28;20736;-55
2023/09/18 02:10:08;;;;;;;5.65;3.80;;;25.40;67.60;26.30;99724.00;;;;5007242;28;20214;-54
2023/09/18 02:12:34;;;;;;;5.55;3.67;;;25.40;67.30;26.40;99728.00;;;;5007734;28;20710;-55
2023/09/18 02:15:04;;;;;;;4.70;4.03;;;25.40;67.60;26.40;99727.00;;;;5008703;28;20294;-52
2023/09/18 02:17:30;;;;;;;4.55;3.80;;;25.50;67.90;26.30;99713.00;;;;5008172;28;20211;-53
2023/09/18 02:19:56;;;;;;;5.18;3.72;;;25.40;67.60;26.30;99715.00;;;;5024743;28;20211;-54
2023/09/18 02:22:21;;;;;;;5.82;3.90;;;25.40;67.30;26.10;99711.00;;;;5012726;28;20226;-54
2023/09/18 02:24:47;;;;;;;4.75;3.22;;;25.40;67.30;26.30;99705.00;;;;5006996;28;20684;-53
2023/09/18 02:27:13;;;;;;;4.10;3.65;;;25.40;67.50;26.30;99693.00;;;;5006665;28;20193;-52
2023/09/18 02:29:38;;;;;;;4.22;3.53;;;25.40;67.60;26.30;99695.00;;;;5006607;28;20212;-54
2023/09/18 02:32:04;;;;;;;7.03;4.13;;;25.40;67.80;26.30;99726.00;;;;5006553;28;20210;-55
2023/09/18 02:34:30;;;;;;;5.20;3.90;;;25.20;66.70;26.20;99723.00;;;;5007099;28;20495;-54
2023/09/18 02:36:56;;;;;;;7.13;3.63;;;25.20;67.20;26.20;99731.00;;;;5006376;28;20172;-54
2023/09/18 02:39:22;;;;;;;6.15;3.80;;;25.20;66.80;26.20;99719.00;;;;5007103;28;20214;-54
2023/09/18 02:41:48;;;;;;;5.45;3.67;;;25.10;67.50;26.20;99738.00;;;;5006282;28;20187;-54
2023/09/18 02:44:14;;;;;;;5.88;3.80;;;25.10;66.80;26.10;99718.00;;;;5006690;28;20183;-55
2023/09/18 02:46:42;;;;;;;5.35;3.78;;;25.00;67.60;26.10;99713.00;;;;5006775;28;20183;-54
2023/09/18 02:49:07;;;;;;;6.10;4.00;;;24.90;67.70;26.00;99706.00;;;;5006671;28;20275;-55
2023/09/18 02:51:33;;;;;;;5.15;3.80;;;24.80;67.30;26.00;99698.00;;;;5006218;28;20273;-54
2023/09/18 02:53:59;;;;;;;5.25;4.10;;;24.90;67.80;26.00;99691.00;;;;5006522;28;20231;-54
2023/09/18 02:56:24;;;;;;;5.05;3.63;;;24.90;68.00;26.00;99687.00;;;;5006238;28;20176;-53
2023/09/18 02:58:50;;;;;;;4.47;3.60;;;24.90;68.10;26.00;99701.00;;;;5006321;28;20203;-54
2023/09/18 03:01:16;;;;;;;4.95;3.65;;;24.80;68.30;25.90;99678.00;;;;5006555;28;20191;-55
2023/09/18 03:03:42;;;;;;;5.57;4.10;;;24.80;68.80;25.90;99687.00;;;;5007682;28;20183;-54
2023/09/18 03:06:07;;;;;;;6.15;3.70;;;24.80;68.50;25.90;99674.00;;;;5007452;28;20635;-54
2023/09/18 03:08:33;;;;;;;5.68;4.32;;;24.80;68.80;25.90;99662.00;;;;5007142;28;20176;-55
2023/09/18 03:10:59;;;;;;;5.07;3.90;;;24.80;68.60;25.90;99658.00;;;;5007240;28;20203;-53
2023/09/18 03:13:27;;;;;;;5.15;3.88;;;24.90;68.80;25.90;99651.00;;;;5010898;28;20194;-54
2023/09/18 03:15:53;;;;;;;4.40;3.83;;;24.90;68.90;25.90;99650.00;;;;5011228;28;20869;-55
2023/09/18 03:18:18;;;;;;;4.20;3.80;;;24.90;68.60;25.80;99537.00;;;;5011057;28;20331;-54
2023/09/18 03:20:45;;;;;;;5.53;4.00;;;25.00;68.80;25.80;99636.00;;;;5010965;28;20203;-53
2023/09/18 03:23:10;;;;;;;4.28;3.80;;;25.00;69.00;25.90;99669.00;;;;5011386;28;20176;-53
2023/09/18 03:25:37;;;;;;;5.20;3.92;;;25.00;68.70;25.90;99657.00;;;;5011158;28;20230;-55
2023/09/18 03:28:03;;;;;;;7.53;4.22;;;25.10;69.20;25.90;99643.00;;;;5010806;28;20195;-54
2023/09/18 03:30:29;;;;;;;6.05;4.20;;;25.00;68.80;25.90;99643.00;;;;5010642;28;20219;-55
2023/09/18 03:32:55;;;;;;;7.97;4.20;;;25.10;69.00;25.90;99638.00;;;;5010845;28;20187;-54
2023/09/18 03:35:20;;;;;;;7.18;3.72;;;25.10;69.40;25.90;99635.00;;;;5010856;28;20179;-55
2023/09/18 03:37:56;;;;;;;7.38;4.22;;;25.10;69.10;25.90;99626.00;;;;5010598;28;20199;-55
2023/09/18 03:40:22;;;;;;;7.63;4.55;;;25.10;69.40;25.90;99632.00;;;;5010737;28;20209;-55
2023/09/18 03:42:48;;;;;;;7.82;4.07;;;25.10;69.80;25.90;99686.00;;;;5010560;28;20214;-55
2023/09/18 03:45:14;;;;;;;7.13;4.50;;;25.00;71.00;25.90;99684.00;;;;5010479;28;20187;-54
2023/09/18 03:47:41;;;;;;;4.65;3.80;;;24.90;71.70;25.90;99693.00;;;;5010297;28;20193;-55
2023/09/18 03:50:08;;;;;;;6.43;4.03;;;24.80;71.10;25.80;99699.00;;;;5010399;28;20219;-54
2023/09/18 03:52:34;;;;;;;4.60;3.90;;;24.80;71.40;25.80;99684.00;;;;5010502;28;20667;-55
2023/09/18 03:54:59;;;;;;;8.13;4.40;;;24.90;70.90;25.80;99680.00;;;;5010529;28;20195;-56
2023/09/18 03:57:25;;;;;;;3.92;3.53;;;24.80;71.40;25.80;99665.00;;;;5010527;28;20211;-55
2023/09/18 03:59:51;;;;;;;8.55;4.13;;;24.90;71.00;25.80;99641.00;;;;5010314;28;20732;-54
2023/09/18 04:02:17;;;;;;;4.43;3.85;;;24.90;71.10;25.80;99637.00;;;;5009733;28;20180;-55
2023/09/18 04:04:42;;;;;;;5.18;3.75;;;24.90;71.00;25.70;99636.00;;;;5009888;28;20179;-58
2023/09/18 04:07:09;;;;;;;7.18;3.80;;;25.00;70.90;25.70;99637.00;;;;5009793;28;20594;-54
2023/09/18 04:09:34;;;;;;;4.43;3.75;;;24.90;70.80;25.70;99631.00;;;;5019392;28;20215;-54
2023/09/18 04:12:01;;;;;;;7.60;4.28;;;24.90;71.00;25.70;99644.00;;;;5025601;28;20607;-54
2023/09/18 04:14:27;;;;;;;5.20;3.97;;;24.80;71.40;25.70;99647.00;;;;5010033;28;20202;-54
2023/09/18 04:16:53;;;;;;;8.55;3.80;;;24.80;71.40;25.70;99662.00;;;;5011295;28;20646;-54
2023/09/18 04:19:18;;;;;;;7.47;4.28;;;24.70;72.20;25.70;99657.00;;;;5011908;28;20226;-54
2023/09/18 04:21:44;;;;;;;6.93;4.18;;;24.50;72.60;25.70;99653.00;;;;5014074;28;20184;-54
2023/09/18 04:24:10;;;;;;;8.05;4.45;;;24.50;72.90;25.70;99651.00;;;;5015836;28;20180;-54
2023/09/18 04:26:37;;;;;;;6.45;4.03;;;24.50;72.90;25.60;99641.00;;;;5020351;28;20202;-54
2023/09/18 04:29:03;;;;;;;5.65;3.97;;;24.60;72.50;25.70;99635.00;;;;5010701;28;20179;-54
2023/09/18 04:31:29;;;;;;;9.20;3.88;;;24.70;71.70;25.60;99623.00;;;;5009954;28;20525;-55
2023/09/18 04:33:55;;;;;;;16.80;4.97;;;24.80;71.80;25.60;99629.00;;;;5009847;28;20176;-55
2023/09/18 04:36:21;;;;;;;8.68;4.35;;;24.80;71.90;25.60;99640.00;;;;5009762;28;20190;-54
2023/09/18 04:38:47;;;;;;;10.23;4.60;;;24.80;71.90;25.60;99649.00;;;;4992454;28;20570;-54
2023/09/18 04:41:14;;;;;;;9.52;4.40;;;24.70;72.60;25.60;99651.00;;;;5009762;28;20721;-56
2023/09/18 04:43:40;;;;;;;11.18;4.72;;;24.70;72.20;25.50;99660.00;;;;5009350;28;20743;-56
2023/09/18 04:46:06;;;;;;;8.30;4.63;;;24.40;73.30;25.60;99636.00;;;;5009295;28;20184;-55
2023/09/18 04:48:32;;;;;;;9.13;4.40;;;24.60;73.10;25.60;99609.00;;;;5005461;28;20678;-55
2023/09/18 04:50:59;;;;;;;7.55;4.10;;;24.70;72.20;25.60;99631.00;;;;5006098;28;20215;-54
2023/09/18 04:53:25;;;;;;;7.65;4.65;;;24.70;72.60;25.60;99624.00;;;;5007216;28;20213;-55
2023/09/18 04:55:50;;;;;;;5.68;3.90;;;24.70;72.50;25.50;99628.00;;;;5008785;28;20183;-54
2023/09/18 04:58:17;;;;;;;9.73;4.38;;;24.70;72.20;25.50;99630.00;;;;5008750;28;20186;-55
2023/09/18 05:00:43;;;;;;;9.25;4.50;;;24.60;72.70;25.50;99638.00;;;;5008194;28;20262;-58
2023/09/18 05:03:09;;;;;;;8.43;4.40;;;24.60;72.70;25.50;99637.00;;;;5007672;28;20670;-55
2023/09/18 05:05:35;;;;;;;6.72;4.10;;;24.70;72.60;25.50;99644.00;;;;5008620;28;20218;-54
2023/09/18 05:08:03;;;;;;;8.07;4.38;;;24.60;73.00;25.50;99638.00;;;;5008458;28;20203;-54
2023/09/18 05:10:29;;;;;;;9.52;4.57;;;24.70;72.40;25.50;99645.00;;;;5005790;28;20274;-54
2023/09/18 05:12:58;;;;;;;9.23;4.85;;;24.60;72.90;25.50;99652.00;;;;5007644;28;20183;-56
2023/09/18 05:15:31;;;;;;;7.22;4.03;;;24.40;73.20;25.50;99614.00;;;;5008697;28;20266;-55
2023/09/18 05:17:57;;;;;;;12.23;4.88;;;24.50;73.20;25.50;99647.00;;;;4991619;28;20191;-55
2023/09/18 05:20:24;;;;;;;7.38;3.78;;;24.50;73.10;25.50;99638.00;;;;5006674;28;20629;-55
2023/09/18 05:22:53;;;;;;;8.38;4.03;;;24.40;73.10;25.40;99640.00;;;;5008639;28;20186;-55
2023/09/18 05:25:19;;;;;;;7.43;4.07;;;24.30;73.50;25.40;99635.00;;;;5007112;28;20190;-54
2023/09/18 05:27:44;;;;;;;9.07;4.18;;;24.40;73.50;25.40;99659.00;;;;5007791;28;20711;-57
2023/09/18 05:30:21;;;;;;;6.90;4.25;;;24.30;73.50;25.40;99656.00;;;;5006581;28;20211;-56
2023/09/18 05:32:47;;;;;;;6.47;3.90;;;24.20;73.80;25.30;99657.00;;;;5006737;28;20670;-55
2023/09/18 05:35:14;;;;;;;9.73;4.20;;;24.30;73.90;25.30;99643.00;;;;5008037;28;20556;-57
2023/09/18 05:37:40;;;;;;;8.27;4.00;;;24.20;73.80;25.30;99636.00;;;;5007960;28;20247;-56
2023/09/18 05:40:09;;;;;;;5.72;3.85;;;24.20;73.80;25.30;99647.00;;;;5007565;28;20231;-55
2023/09/18 05:42:39;;;;;;;10.18;4.38;;;24.20;73.90;25.20;99651.00;;;;5008067;28;20241;-54
2023/09/18 05:45:05;;;;;;;6.47;3.50;;;24.20;73.90;25.20;99659.00;;;;5007996;28;20724;-54
2023/09/18 05:47:35;;;;;;;6.93;3.85;;;24.30;73.30;25.20;99659.00;;;;5007632;28;20184;-54
2023/09/18 05:50:14;;;;;;;8.88;4.10;;;24.20;73.40;25.20;99668.00;;;;5007508;28;20215;-55
2023/09/18 05:52:40;;;;;;;8.73;3.72;;;24.20;73.40;25.20;99674.00;;;;5007814;28;20884;-54
2023/09/18 05:55:09;;;;;;;7.28;3.80;;;24.40;72.90;25.20;99694.00;;;;5006420;28;20223;-55
2023/09/18 05:57:35;;;;;;;7.50;3.95;;;24.20;73.70;25.20;99688.00;;;;5007696;28;20184;-54
2023/09/18 06:00:01;;;;;;;6.68;3.97;;;24.20;73.70;25.20;99668.00;;;;5007329;28;20601;-54
2023/09/18 06:02:26;;;;;;;8.18;3.83;;;24.20;73.70;25.20;99666.00;;;;5007497;28;20182;-53
2023/09/18 06:04:57;;;;;;;9.80;4.22;;;24.10;73.80;25.20;99669.00;;;;5006538;28;20237;-54
2023/09/18 06:07:26;;;;;;;6.45;3.83;;;24.20;73.90;25.10;99701.00;;;;5007483;28;20179;-54
2023/09/18 06:09:52;;;;;;;6.13;3.88;;;24.00;74.10;25.10;99683.00;;;;5007329;28;20207;-54
2023/09/18 06:12:18;;;;;;;6.45;3.78;;;23.90;74.40;25.00;99683.00;;;;5007702;28;20190;-54
2023/09/18 06:14:44;;;;;;;8.15;3.90;;;24.00;74.20;25.00;99681.00;;;;5023706;28;20251;-55
2023/09/18 06:17:10;;;;;;;8.27;3.72;;;24.00;74.10;25.00;99679.00;;;;5017157;28;20187;-55
2023/09/18 06:19:36;;;;;;;7.65;4.05;;;24.00;74.40;25.00;99687.00;;;;5008417;28;20215;-54
2023/09/18 06:22:02;;;;;;;7.05;3.95;;;24.20;73.90;25.00;99689.00;;;;5007878;28;20207;-55
2023/09/18 06:24:27;;;;;;;6.40;3.70;;;24.20;73.30;25.00;99640.00;;;;5008981;28;20543;-54
2023/09/18 06:26:53;;;;;;;6.80;4.18;;;24.10;73.70;25.00;99720.00;;;;5009606;28;20637;-59
2023/09/18 06:29:19;;;;;;;5.95;3.60;;;24.10;73.70;25.00;99691.00;;;;5016801;28;20207;-55
2023/09/18 06:31:46;;;;;;;5.00;3.50;;;23.80;74.30;25.00;99683.00;;;;4999548;28;20183;-53
2023/09/18 06:34:11;;;;;;;6.78;3.65;;;24.00;73.70;25.00;99670.00;;;;5006077;28;20237;-55
2023/09/18 06:36:37;;;;;;;9.15;3.38;;;24.00;73.70;25.00;99694.00;;;;5007478;28;20549;-54
2023/09/18 06:39:03;;;;;;;5.05;3.25;;;23.90;73.70;24.90;99680.00;;;;5006982;28;20199;-54
2023/09/18 06:41:29;;;;;;;8.75;3.60;;;23.90;74.00;24.90;99682.00;;;;5007175;28;20214;-54
2023/09/18 06:43:54;;;;;;;5.53;3.30;;;23.90;73.70;24.90;99682.00;;;;5007149;28;20188;-54
2023/09/18 06:46:20;;;;;;;6.75;3.65;;;24.00;73.60;24.90;99691.00;;;;5007060;28;20274;-55
2023/09/18 06:48:49;;;;;;;5.28;3.40;;;24.00;74.50;24.90;99701.00;;;;5010864;28;20182;-54
2023/09/18 06:51:15;;;;;;;7.68;3.30;;;24.10;73.60;24.90;99703.00;;;;5011110;28;20211;-54
2023/09/18 06:53:41;;;;;;;4.93;3.40;;;24.10;73.40;24.90;99700.00;;;;5011158;28;20612;-54
2023/09/18 06:56:09;;;;;;;4.63;3.10;;;24.00;73.40;24.90;99697.00;;;;5011011;28;20195;-54
2023/09/18 06:58:35;;;;;;;5.93;3.20;;;23.90;73.50;24.90;99702.00;;;;5010598;28;20189;-54
2023/09/18 07:01:00;;;;;;;4.43;3.17;;;24.10;73.30;24.90;99692.00;;;;5009936;28;20199;-55
2023/09/18 07:03:26;;;;;;;4.50;3.10;;;24.10;72.90;24.90;99716.00;;;;5010830;28;20179;-54
2023/09/18 07:05:52;;;;;;;4.53;2.90;;;24.20;72.80;24.90;99698.00;;;;5011032;28;20183;-54
2023/09/18 07:08:22;;;;;;;5.63;3.13;;;24.00;73.20;24.90;99699.00;;;;5010517;28;20631;-54
2023/09/18 07:10:50;;;;;;;5.15;3.33;;;24.00;73.30;24.90;99712.00;;;;5008295;28;20272;-54
2023/09/18 07:13:16;;;;;;;5.65;3.08;;;24.10;73.10;24.90;99704.00;;;;5009490;28;20183;-55
2023/09/18 07:15:41;;;;;;;4.65;3.17;;;24.00;72.80;24.90;99706.00;;;;5010395;28;20190;-54
2023/09/18 07:18:07;;;;;;;4.65;3.20;;;24.00;73.10;24.90;99714.00;;;;5009276;28;20199;-54
2023/09/18 07:20:33;;;;;;;7.38;3.25;;;24.10;72.90;24.90;99706.00;;;;5006427;28;20254;-55
2023/09/18 07:22:59;;;;;;;5.70;3.10;;;24.00;73.30;24.90;99709.00;;;;5010715;28;20658;-55
2023/09/18 07:25:24;;;;;;;5.68;3.25;;;24.00;73.00;24.90;99726.00;;;;5010530;28;20267;-53
2023/09/18 07:27:50;;;;;;;6.90;3.22;;;24.10;73.10;24.90;99734.00;;;;5010104;28;20186;-54
2023/09/18 07:30:16;;;;;;;4.28;3.05;;;24.00;72.90;24.90;99724.00;;;;5010167;28;20211;-54
2023/09/18 07:32:42;;;;;;;4.80;3.17;;;24.00;73.40;24.80;99730.00;;;;5010494;28;20180;-55
2023/09/18 07:35:09;;;;;;;5.30;3.13;;;23.70;74.30;24.80;99754.00;;;;5009380;28;20183;-54
2023/09/18 07:37:35;;;;;;;5.22;2.92;;;23.80;73.60;24.80;99740.00;;;;5005622;28;20245;-56
2023/09/18 07:40:08;;;;;;;5.00;3.03;;;23.80;73.40;24.80;99750.00;;;;5007801;28;20876;-54
2023/09/18 07:42:33;;;;;;;3.30;2.80;;;23.80;73.60;24.80;99752.00;;;;4995151;28;20218;-54
2023/09/18 07:44:59;;;;;;;4.40;2.58;;;23.90;73.40;24.80;99761.00;;;;5002488;28;20204;-54
2023/09/18 07:47:25;;;;;;;8.45;3.20;;;23.90;73.50;24.80;99757.00;;;;5009138;28;20190;-54
2023/09/18 07:49:51;;;;;;;5.15;2.70;;;24.00;73.20;24.80;99766.00;;;;5010144;28;20204;-53
2023/09/18 07:52:17;;;;;;;5.35;2.97;;;24.00;72.90;24.80;99766.00;;;;5005284;28;20198;-54
2023/09/18 07:54:43;;;;;;;5.05;3.22;;;23.90;73.50;24.80;99781.00;;;;5010904;28;20222;-54
2023/09/18 07:57:09;;;;;;;5.93;3.00;;;23.80;73.40;24.80;99769.00;;;;5010903;28;20167;-56
2023/09/18 07:59:36;;;;;;;3.95;2.78;;;23.80;73.70;24.80;99759.00;;;;5004595;28;20230;-53
2023/09/18 08:02:02;;;;;;;4.13;2.88;;;23.90;73.50;24.80;99752.00;;;;5007238;28;20700;-54
2023/09/18 08:04:31;;;;;;;6.03;3.10;;;24.00;73.30;24.70;99765.00;;;;5002658;28;20215;-54
2023/09/18 08:06:57;;;;;;;3.83;2.70;;;23.80;73.40;24.70;99764.00;;;;5010534;28;20207;-55
2023/09/18 08:09:22;;;;;;;5.00;3.00;;;23.80;73.50;24.70;99777.00;;;;5009149;28;20246;-55
2023/09/18 08:11:49;;;;;;;3.80;2.60;;;23.90;73.50;24.70;99788.00;;;;5009083;28;20199;-54
2023/09/18 08:14:17;;;;;;;4.63;2.55;;;23.90;73.10;24.70;99773.00;;;;5010588;28;20230;-55
2023/09/18 08:16:42;;;;;;;3.65;2.55;;;23.80;73.40;24.70;99781.00;;;;5013655;28;20210;-54
2023/09/18 08:19:09;;;;;;;3.75;2.50;;;23.80;73.50;24.70;99787.00;;;;5029380;28;20195;-55
2023/09/18 08:21:35;;;;;;;3.97;2.65;;;23.70;73.30;24.70;99789.00;;;;5012052;28;20201;-54
2023/09/18 08:24:00;;;;;;;5.20;2.88;;;23.70;73.90;24.70;99778.00;;;;5012361;28;20250;-55
2023/09/18 08:26:27;;;;;;;3.80;2.50;;;23.80;73.50;24.70;99783.00;;;;5012755;28;20247;-56
2023/09/18 08:28:53;;;;;;;3.10;2.30;;;23.80;73.40;24.70;99766.00;;;;5011444;28;20180;-54
2023/09/18 08:31:18;;;;;;;3.88;2.38;;;23.60;73.60;24.70;99774.00;;;;5012685;28;20847;-53
2023/09/18 08:33:44;;;;;;;3.17;2.35;;;23.70;73.50;24.70;99786.00;;;;5025556;28;20662;-53
2023/09/18 08:36:10;;;;;;;4.88;2.58;;;23.70;73.30;24.70;99791.00;;;;5012634;28;20176;-54
2023/09/18 08:38:36;;;;;;;3.28;2.40;;;23.50;73.40;24.70;99776.00;;;;5009485;28;20283;-55
2023/09/18 08:41:03;;;;;;;3.90;2.20;;;23.60;73.40;24.70;99781.00;;;;4991601;28;20576;-54
2023/09/18 08:43:29;;;;;;;4.38;2.30;;;23.60;73.50;24.70;99781.00;;;;5009353;28;20589;-55
2023/09/18 08:46:00;;;;;;;2.80;2.30;;;23.50;73.70;24.70;99787.00;;;;5009321;28;20180;-54
2023/09/18 08:48:28;;;;;;;3.25;2.30;;;23.40;73.90;24.60;99792.00;;;;5005035;28;20563;-54
2023/09/18 08:50:54;;;;;;;4.93;2.40;;;23.50;73.80;24.60;99726.00;;;;5008068;28;20718;-54
2023/09/18 08:53:21;;;;;;;3.25;2.33;;;23.50;73.30;24.60;99794.00;;;;4991318;28;20183;-54
2023/09/18 08:55:47;;;;;;;3.45;2.20;;;23.50;73.60;24.60;99805.00;;;;4991953;28;20261;-53
2023/09/18 08:58:14;;;;;;;3.58;2.38;;;23.60;73.20;24.60;99799.00;;;;5009019;28;20666;-55
2023/09/18 09:00:40;;;;;;;2.83;1.95;;;23.50;73.10;24.40;99792.00;;;;5009143;28;20219;-56
2023/09/18 09:03:05;;;;;;;3.67;2.50;;;23.50;73.20;24.60;99788.00;;;;4991164;28;20192;-54
2023/09/18 09:05:31;;;;;;;3.97;2.30;;;23.50;73.10;24.60;99784.00;;;;5008302;28;20183;-54
2023/09/18 09:07:57;;;;;;;2.95;2.08;;;23.50;73.10;24.60;99785.00;;;;4991363;28;20215;-53
2023/09/18 09:10:25;;;;;;;3.05;2.13;;;23.60;73.00;24.60;99784.00;;;;5007447;28;20203;-53
2023/09/18 09:12:55;;;;;;;3.05;2.38;;;23.60;73.20;24.60;99787.00;;;;5009402;28;20207;-54
2023/09/18 09:15:25;;;;;;;3.50;2.60;;;23.40;72.90;24.50;99791.00;;;;5007951;28;20176;-54
2023/09/18 09:18:05;;;;;;;4.40;2.35;;;23.30;72.90;24.50;99790.00;;;;5000930;28;20206;-52
2023/09/18 09:20:31;;;;;;;2.60;2.30;;;23.30;73.10;24.50;99799.00;;;;5009818;28;20737;-53
2023/09/18 09:23:04;;;;;;;3.15;2.22;;;23.20;73.30;24.50;99791.00;;;;5009912;28;20290;-53
2023/09/18 09:25:31;;;;;;;5.55;2.67;;;23.30;73.20;24.50;99806.00;;;;5009753;28;20195;-53
2023/09/18 09:28:04;;;;;;;4.38;2.50;;;23.30;73.00;24.50;99798.00;;;;5009183;28;20270;-55
2023/09/18 09:30:31;;;;;;;5.32;2.60;;;23.20;73.10;24.50;99799.00;;;;5009560;28;20211;-54
2023/09/18 09:32:57;;;;;;;3.05;2.30;;;23.20;72.70;24.40;99800.00;;;;5010184;28;20175;-53
2023/09/18 09:35:33;;;;;;;4.00;2.30;;;23.20;72.70;24.40;99806.00;;;;5002171;28;20755;-54
2023/09/18 09:38:02;;;;;;;3.78;2.35;;;23.20;72.80;24.40;99802.00;;;;5002347;28;20218;-54
2023/09/18 09:40:29;;;;;;;3.17;2.50;;;23.20;72.80;24.40;99799.00;;;;5009111;28;20211;-54
2023/09/18 09:43:04;;;;;;;5.30;2.47;;;23.20;72.50;24.30;99793.00;;;;5006673;28;20180;-54
2023/09/18 09:45:35;;;;;;;3.17;2.40;;;23.00;73.20;24.30;99797.00;;;;5008418;28;20179;-53
2023/09/18 09:48:06;;;;;;;3.45;2.40;;;23.10;73.60;24.30;99794.00;;;;5007911;28;20191;-53
2023/09/18 09:50:32;;;;;;;4.38;2.72;;;23.10;73.50;24.30;99808.00;;;;5008314;28;20208;-52
2023/09/18 09:52:58;;;;;;;3.43;2.60;;;23.20;73.50;24.30;99801.00;;;;5008135;28;20184;-52
2023/09/18 09:55:30;;;;;;;4.13;2.58;;;23.20;72.90;24.30;99801.00;;;;5002200;28;20206;-52
2023/09/18 09:58:01;;;;;;;3.80;2.40;;;23.10;73.10;24.30;99792.00;;;;5001450;28;20681;-52
2023/09/18 10:00:31;;;;;;;3.08;2.47;;;23.20;72.80;24.30;99794.00;;;;5008479;28;20204;-53
2023/09/18 10:03:02;;;;;;;5.70;2.40;;;23.20;72.80;24.30;99800.00;;;;5007963;28;20611;-53
2023/09/18 10:05:40;;;;;;;3.25;2.20;;;23.30;72.90;24.40;99799.00;;;;4990304;28;20164;-54
2023/09/18 10:08:27;;;;;;;3.50;2.17;;;23.30;72.90;24.40;99788.00;;;;5007244;28;20175;-53
2023/09/18 10:10:58;;;;;;;3.78;2.58;;;23.30;72.90;24.40;99794.00;;;;5006084;28;20223;-53
2023/09/18 10:13:52;;;;;;;3.23;2.30;;;23.30;72.90;24.40;99790.00;;;;5008459;28;20172;-54
2023/09/18 10:16:19;;;;;;;3.85;2.47;;;23.30;72.90;24.40;99779.00;;;;5003256;28;20188;-53
2023/09/18 10:19:28;;;;;;;4.07;2.35;;;23.30;72.90;24.40;99780.00;;;;5010820;28;20194;-54
2023/09/18 10:22:27;;;;;;;3.67;2.50;;;23.30;72.90;24.40;99773.00;;;;5019667;28;20266;-53
2023/09/18 10:25:00;;;;;;;3.45;2.13;;;23.30;72.60;24.40;99787.00;;;;5016853;28;20642;-53
2023/09/18 10:27:26;;;;;;;7.65;2.78;;;23.40;72.50;24.40;99780.00;;;;5012256;28;20198;-53
2023/09/18 10:29:51;;;;;;;5.40;2.53;;;23.40;72.00;24.40;99773.00;;;;5012111;28;20257;-55
2023/09/18 10:32:20;;;;;;;2.75;2.25;;;23.40;71.90;24.40;99786.00;;;;4996392;28;20175;-52
2023/09/18 10:34:47;;;;;;;2.90;2.30;;;23.50;72.10;24.40;99775.00;;;;5013371;28;20335;-52
2023/09/18 10:37:12;;;;;;;3.70;2.58;;;23.60;71.70;24.50;99789.00;;;;5022378;28;20176;-52
2023/09/18 10:39:41;;;;;;;3.28;2.33;;;23.60;72.10;24.50;99792.00;;;;5017467;28;20211;-53
2023/09/18 10:42:08;;;;;;;3.55;2.55;;;23.70;71.20;24.50;99803.00;;;;5013307;28;20274;-53
2023/09/18 10:44:34;;;;;;;4.55;2.80;;;23.70;71.50;24.60;99800.00;;;;5014147;28;20187;-53
2023/09/18 10:47:02;;;;;;;6.15;2.40;;;23.60;71.30;24.60;99798.00;;;;5012920;28;20214;-54
2023/09/18 10:49:28;;;;;;;3.85;2.67;;;23.70;70.80;24.60;99803.00;;;;5012121;28;20204;-53
2023/09/18 10:51:55;;;;;;;6.38;2.65;;;23.60;71.10;24.60;99794.00;;;;5013136;28;20283;-53
2023/09/18 10:54:23;;;;;;;3.38;2.42;;;23.70;70.30;24.60;99791.00;;;;5011695;28;20255;-54